Time;durP1;ratioP1;P1;durP2;ratioP2;P2;SDS_P1;SDS_P2;PMS_P1;PMS_P2;Temp;Humidity;BMP_temperature;BMP_pressure;BME280_temperature;BME280_humidity;BME280_pressure;Samples;Min_cycle;Max_cycle;Signal;HPM_P1;HPM_P2
2022/11/04 00:01:56;;;;;;;1.90;1.30;;;21.80;60.40;;;;;;5015798;28;20500;-64
2022/11/04 00:04:24;;;;;;;2.10;1.20;;;21.80;60.50;;;;;;5024251;28;20571;-63
2022/11/04 00:06:51;;;;;;;1.65;1.13;;;21.80;60.40;;;;;;5018249;28;20048;-63
2022/11/04 00:09:34;;;;;;;1.85;1.23;;;21.80;60.40;;;;;;5018169;28;20032;-62
2022/11/04 00:14:44;;;;;;;1.80;1.20;;;21.80;60.40;;;;;;5012582;28;20025;-62
2022/11/04 00:17:23;;;;;;;1.88;1.10;;;21.80;60.30;;;;;;5013032;28;20026;-62
2022/11/04 00:33:24;;;;;;;1.95;1.10;;;21.80;60.20;;;;;;5021729;28;20056;-63
2022/11/04 00:33:44;;;;;;;2.08;1.20;;;21.80;60.30;;;;;;5023240;28;20048;-63
2022/11/04 00:36:10;;;;;;;2.95;1.20;;;21.80;60.30;;;;;;5009100;28;20417;-63
2022/11/04 00:38:35;;;;;;;1.95;1.10;;;21.80;60.20;;;;;;5008461;28;20026;-63
2022/11/04 00:41:01;;;;;;;2.67;1.15;;;21.80;60.20;;;;;;5019864;28;20116;-62
2022/11/04 00:43:27;;;;;;;1.90;1.30;;;21.80;60.20;;;;;;5017175;28;20030;-63
2022/11/04 00:45:52;;;;;;;3.05;1.30;;;21.80;60.20;;;;;;5009555;28;20033;-64
2022/11/04 00:48:18;;;;;;;2.38;1.30;;;21.80;60.10;;;;;;5010772;28;20098;-63
2022/11/04 00:50:43;;;;;;;2.05;1.10;;;21.80;60.20;;;;;;5007238;28;20528;-63
2022/11/04 00:53:09;;;;;;;2.85;1.25;;;21.80;60.10;;;;;;5008034;28;20029;-61
2022/11/04 00:55:35;;;;;;;2.05;1.20;;;21.80;60.10;;;;;;5016402;28;20030;-63
2022/11/04 00:58:00;;;;;;;2.00;1.25;;;21.70;60.10;;;;;;5020809;28;20083;-62
2022/11/04 01:00:26;;;;;;;2.97;1.40;;;21.70;60.10;;;;;;5020869;28;20040;-63
2022/11/04 01:02:52;;;;;;;2.10;1.40;;;21.70;60.10;;;;;;5011616;28;20765;-61
2022/11/04 01:05:18;;;;;;;1.85;1.10;;;21.80;60.10;;;;;;5016222;28;20057;-63
2022/11/04 01:07:43;;;;;;;2.15;1.23;;;21.70;60.10;;;;;;5018919;28;20029;-62
2022/11/04 01:10:09;;;;;;;1.85;1.08;;;21.80;60.10;;;;;;5019994;28;20018;-62
2022/11/04 01:12:35;;;;;;;1.80;1.20;;;21.80;60.10;;;;;;5014119;28;20078;-62
2022/11/04 01:15:00;;;;;;;2.40;1.30;;;21.80;60.10;;;;;;5012002;28;20485;-62
2022/11/04 01:17:26;;;;;;;2.00;1.30;;;21.70;60.00;;;;;;5013509;28;20030;-63
2022/11/04 01:19:52;;;;;;;2.58;1.52;;;21.70;60.00;;;;;;5017364;28;20026;-61
2022/11/04 01:22:17;;;;;;;1.60;1.00;;;21.70;60.10;;;;;;5017749;28;20030;-63
2022/11/04 01:24:43;;;;;;;1.67;1.15;;;21.80;60.10;;;;;;5014389;28;20034;-64
2022/11/04 01:27:08;;;;;;;2.08;1.10;;;21.70;60.10;;;;;;5009944;28;20037;-61
2022/11/04 01:29:34;;;;;;;1.48;1.05;;;21.70;60.10;;;;;;5007448;28;20485;-62
2022/11/04 01:31:59;;;;;;;2.10;1.30;;;21.80;60.10;;;;;;5009508;28;20056;-62
2022/11/04 01:34:25;;;;;;;2.03;1.23;;;21.70;60.10;;;;;;5016871;28;20018;-64
2022/11/04 01:36:51;;;;;;;1.75;1.10;;;21.70;60.00;;;;;;5014134;28;20029;-62
2022/11/04 01:39:16;;;;;;;1.63;1.10;;;21.70;60.10;;;;;;5013983;28;20546;-62
2022/11/04 01:41:42;;;;;;;1.98;1.27;;;21.70;60.10;;;;;;5012047;28;20022;-63
2022/11/04 01:44:41;;;;;;;2.03;1.20;;;21.70;60.00;;;;;;5016154;28;20029;-63
2022/11/04 01:47:13;;;;;;;;;;;21.70;60.00;;;;;;5012551;28;20032;-61
2022/11/04 01:49:39;;;;;;;2.25;1.20;;;21.70;60.00;;;;;;5014738;28;19959;-62
2022/11/04 01:52:12;;;;;;;2.15;1.33;;;21.70;60.00;;;;;;5016178;28;20529;-64
2022/11/04 01:54:42;;;;;;;1.60;1.10;;;21.70;60.00;;;;;;5016658;28;20022;-62
2022/11/04 01:57:12;;;;;;;1.65;1.20;;;21.70;60.00;;;;;;5015229;28;20080;-62
2022/11/04 01:59:40;;;;;;;1.45;1.10;;;21.70;60.00;;;;;;5011989;28;20048;-63
2022/11/04 02:02:06;;;;;;;1.80;1.23;;;21.60;60.00;;;;;;5013837;28;20501;-62
2022/11/04 02:04:33;;;;;;;2.67;1.30;;;21.60;60.00;;;;;;5008666;28;20040;-62
2022/11/04 02:07:01;;;;;;;1.83;1.20;;;21.60;60.00;;;;;;5010021;28;20032;-62
2022/11/04 02:09:29;;;;;;;1.92;1.30;;;21.60;60.00;;;;;;5013794;28;20037;-63
2022/11/04 02:14:40;;;;;;;1.40;1.08;;;21.60;60.00;;;;;;5019661;28;20029;-62
2022/11/04 02:17:18;;;;;;;2.25;1.40;;;21.70;60.00;;;;;;5019839;28;20445;-61
2022/11/04 02:20:05;;;;;;;1.77;1.00;;;21.60;60.00;;;;;;5014618;28;20030;-61
2022/11/04 02:23:02;;;;;;;1.50;1.20;;;21.60;60.00;;;;;;5013623;28;20083;-62
2022/11/04 02:25:55;;;;;;;1.42;1.10;;;21.60;59.90;;;;;;5013992;28;20502;-61
2022/11/04 02:28:21;;;;;;;2.10;1.30;;;21.60;59.90;;;;;;5015403;28;20481;-63
2022/11/04 02:31:01;;;;;;;2.00;1.20;;;21.60;59.90;;;;;;5009386;28;20030;-62
2022/11/04 02:33:26;;;;;;;2.42;1.30;;;21.60;60.00;;;;;;5013255;28;20040;-61
2022/11/04 02:36:13;;;;;;;2.17;1.20;;;21.60;60.00;;;;;;5006404;28;20030;-62
2022/11/04 02:39:04;;;;;;;1.40;1.13;;;21.60;60.00;;;;;;5011537;28;20025;-62
2022/11/04 02:41:37;;;;;;;1.70;1.20;;;21.60;59.60;;;;;;5013682;28;20028;-63
2022/11/04 02:44:18;;;;;;;1.90;1.30;;;21.60;60.50;;;;;;5020104;28;20030;-61
2022/11/04 02:46:52;;;;;;;2.10;1.20;;;21.60;60.00;;;;;;5016063;28;20060;-62
2022/11/04 02:49:25;;;;;;;2.25;1.30;;;21.60;60.00;;;;;;5017611;28;20440;-62
2022/11/04 02:51:59;;;;;;;2.25;1.17;;;21.50;59.90;;;;;;5024516;28;20434;-63
2022/11/04 02:54:33;;;;;;;2.08;1.20;;;21.60;60.00;;;;;;5021263;28;20436;-61
2022/11/04 02:57:00;;;;;;;2.30;1.20;;;21.60;60.00;;;;;;5018501;28;20030;-62
2022/11/04 02:59:35;;;;;;;1.95;1.23;;;21.50;59.90;;;;;;5011871;28;20026;-61
2022/11/04 03:02:05;;;;;;;2.55;1.60;;;21.60;60.00;;;;;;5020971;28;20064;-61
2022/11/04 03:04:36;;;;;;;1.63;1.17;;;21.60;60.00;;;;;;5019240;28;20029;-64
2022/11/04 03:07:04;;;;;;;1.55;1.20;;;21.60;60.00;;;;;;5016916;28;20045;-61
2022/11/04 03:09:32;;;;;;;1.80;1.30;;;21.50;59.90;;;;;;5010400;28;20485;-62
2022/11/04 03:12:06;;;;;;;2.03;1.20;;;21.50;59.90;;;;;;5005752;28;20077;-62
2022/11/04 03:14:40;;;;;;;1.85;1.17;;;21.50;59.90;;;;;;5011122;28;20485;-61
2022/11/04 03:17:19;;;;;;;2.40;1.23;;;21.50;59.90;;;;;;5013446;28;20034;-61
2022/11/04 03:19:57;;;;;;;1.88;1.20;;;21.50;59.90;;;;;;5017583;28;20025;-62
2022/11/04 03:22:28;;;;;;;1.77;1.10;;;21.50;59.90;;;;;;5013312;28;20037;-63
2022/11/04 03:24:54;;;;;;;1.20;1.00;;;21.50;59.90;;;;;;5017959;28;20088;-61
2022/11/04 03:27:25;;;;;;;1.90;1.10;;;21.50;59.90;;;;;;5015186;28;20041;-63
2022/11/04 03:30:02;;;;;;;2.25;1.05;;;21.50;59.90;;;;;;5022829;28;20491;-62
2022/11/04 03:32:40;;;;;;;1.60;1.10;;;21.50;59.90;;;;;;5020240;28;20413;-62
2022/11/04 03:35:06;;;;;;;1.80;1.30;;;21.50;59.90;;;;;;5016061;28;20018;-62
2022/11/04 03:37:32;;;;;;;2.20;1.20;;;21.50;59.90;;;;;;5013281;28;20076;-63
2022/11/04 03:39:58;;;;;;;2.00;1.35;;;21.50;59.90;;;;;;5017916;28;20378;-64
2022/11/04 03:42:25;;;;;;;1.55;1.10;;;21.50;60.40;;;;;;5016237;28;20053;-63
2022/11/04 03:44:53;;;;;;;1.35;1.02;;;21.50;59.90;;;;;;5019058;28;20497;-64
2022/11/04 03:47:23;;;;;;;1.63;1.00;;;21.50;59.90;;;;;;5008633;28;20481;-63
2022/11/04 03:49:51;;;;;;;1.67;1.05;;;21.50;60.00;;;;;;5004834;28;20018;-65
2022/11/04 03:52:17;;;;;;;1.40;1.20;;;21.50;59.90;;;;;;5013473;28;20022;-63
2022/11/04 03:54:43;;;;;;;1.40;1.08;;;21.40;59.90;;;;;;5015744;28;20359;-65
2022/11/04 03:57:48;;;;;;;1.60;1.20;;;21.50;60.00;;;;;;5016500;28;20116;-64
2022/11/04 04:00:22;;;;;;;1.48;1.00;;;21.50;60.00;;;;;;5017520;28;20489;-64
2022/11/04 04:03:05;;;;;;;1.45;1.10;;;21.40;59.90;;;;;;5012608;28;20032;-64
2022/11/04 04:05:57;;;;;;;1.50;1.10;;;21.40;59.90;;;;;;5015513;28;20458;-65
2022/11/04 04:08:32;;;;;;;1.90;1.20;;;21.50;59.90;;;;;;5012180;28;20511;-64
2022/11/04 04:11:21;;;;;;;1.23;0.98;;;21.40;59.90;;;;;;5016524;28;20330;-65
2022/11/04 04:14:00;;;;;;;1.52;1.00;;;21.40;59.90;;;;;;5007909;28;20544;-64
2022/11/04 04:16:46;;;;;;;1.17;0.90;;;21.40;59.90;;;;;;5016597;28;20052;-63
2022/11/04 04:19:15;;;;;;;1.27;1.00;;;21.40;59.90;;;;;;5014863;28;20480;-63
2022/11/04 04:21:52;;;;;;;1.50;1.02;;;21.40;60.50;;;;;;5021433;28;20029;-64
2022/11/04 04:29:53;;;;;;;1.45;1.00;;;21.40;59.90;;;;;;5016901;28;20041;-64
2022/11/04 04:32:23;;;;;;;1.55;1.02;;;21.40;59.90;;;;;;5009594;28;20401;-65
2022/11/04 04:34:48;;;;;;;1.58;1.20;;;21.40;59.90;;;;;;5021969;28;20029;-64
2022/11/04 04:37:26;;;;;;;1.70;1.13;;;21.40;60.40;;;;;;5018764;28;20033;-62
2022/11/04 04:45:33;;;;;;;1.33;1.05;;;21.40;59.90;;;;;;5016247;28;20045;-64
2022/11/04 04:47:59;;;;;;;1.60;1.05;;;21.40;59.90;;;;;;5013855;28;20078;-63
2022/11/04 04:50:35;;;;;;;1.75;1.10;;;21.40;59.90;;;;;;5010502;28;20110;-63
2022/11/04 04:53:02;;;;;;;1.10;0.93;;;21.40;60.00;;;;;;5007851;28;20050;-63
2022/11/04 04:55:30;;;;;;;1.50;1.10;;;21.40;59.90;;;;;;5016041;28;20021;-64
2022/11/04 04:57:56;;;;;;;1.60;1.00;;;21.40;59.90;;;;;;5025331;28;20072;-62
2022/11/04 05:00:22;;;;;;;1.55;1.05;;;21.30;59.90;;;;;;5014289;28;20385;-63
2022/11/04 05:02:48;;;;;;;1.60;1.10;;;21.40;60.00;;;;;;5014056;28;20026;-62
2022/11/04 05:05:14;;;;;;;1.65;1.10;;;21.40;60.00;;;;;;5021657;28;20037;-63
2022/11/04 05:07:40;;;;;;;1.20;0.90;;;21.40;60.00;;;;;;5012656;28;20577;-62
2022/11/04 05:10:07;;;;;;;1.38;1.10;;;21.40;59.90;;;;;;5009435;28;20371;-63
2022/11/04 05:15:30;;;;;;;1.10;1.00;;;21.30;59.90;;;;;;4987629;28;20459;-63
2022/11/04 05:17:57;;;;;;;1.40;1.10;;;21.30;59.90;;;;;;5013964;28;20488;-62
2022/11/04 05:20:23;;;;;;;1.40;1.00;;;21.30;59.90;;;;;;5018049;28;20022;-63
2022/11/04 05:22:48;;;;;;;1.63;0.88;;;21.30;59.90;;;;;;5013882;28;20029;-63
2022/11/04 05:25:15;;;;;;;0.98;0.80;;;21.30;60.00;;;;;;5010427;28;20033;-63
2022/11/04 05:27:40;;;;;;;1.45;1.00;;;21.30;60.00;;;;;;5013936;28;20072;-62
2022/11/04 05:30:06;;;;;;;1.30;0.98;;;21.30;60.00;;;;;;5009834;28;20478;-63
2022/11/04 05:32:32;;;;;;;1.13;0.90;;;21.30;60.00;;;;;;5012171;28;20105;-63
2022/11/04 05:34:57;;;;;;;1.33;0.95;;;21.30;60.00;;;;;;5025439;28;20097;-62
2022/11/04 05:37:23;;;;;;;1.13;0.90;;;21.30;60.00;;;;;;5010331;28;20088;-62
2022/11/04 05:39:49;;;;;;;1.50;1.00;;;21.30;60.00;;;;;;5014174;28;20161;-62
2022/11/04 05:42:14;;;;;;;1.15;0.85;;;21.30;60.00;;;;;;5016105;28;20109;-63
2022/11/04 05:44:40;;;;;;;1.15;0.98;;;21.30;60.00;;;;;;5011989;28;20034;-63
2022/11/04 05:47:05;;;;;;;1.63;1.10;;;21.30;60.00;;;;;;5011265;28;20081;-61
2022/11/04 05:49:32;;;;;;;1.70;1.00;;;21.30;60.00;;;;;;5010485;28;20026;-63
2022/11/04 05:51:58;;;;;;;1.52;1.00;;;21.30;60.00;;;;;;5018169;28;20017;-62
2022/11/04 05:54:23;;;;;;;1.38;0.93;;;21.30;60.00;;;;;;5017533;28;20362;-62
2022/11/04 05:56:49;;;;;;;1.25;0.90;;;21.30;60.00;;;;;;5017710;28;20507;-62
2022/11/04 05:59:14;;;;;;;1.40;1.05;;;21.30;60.10;;;;;;5012107;28;20030;-63
2022/11/04 06:01:42;;;;;;;1.33;1.10;;;21.30;60.10;;;;;;5009507;28;20068;-63
2022/11/04 06:04:14;;;;;;;1.08;0.88;;;21.30;60.10;;;;;;5017226;28;20033;-62
2022/11/04 06:06:41;;;;;;;1.30;0.90;;;21.30;60.10;;;;;;5010226;28;20034;-62
2022/11/04 06:09:06;;;;;;;1.20;0.90;;;21.30;60.10;;;;;;5012276;28;20033;-62
2022/11/04 06:11:33;;;;;;;1.20;0.90;;;21.30;60.10;;;;;;5018170;28;20022;-62
2022/11/04 06:14:00;;;;;;;1.02;0.80;;;21.30;60.10;;;;;;5014416;28;20451;-62
2022/11/04 06:16:26;;;;;;;1.05;0.82;;;21.30;60.10;;;;;;5014469;28;20539;-62
2022/11/04 06:18:52;;;;;;;1.20;0.90;;;21.20;60.00;;;;;;5020940;28;20025;-63
2022/11/04 06:21:21;;;;;;;1.95;1.00;;;21.20;60.00;;;;;;5013806;28;20055;-63
2022/11/04 06:23:47;;;;;;;1.10;0.80;;;21.20;60.00;;;;;;5011135;28;20030;-61
2022/11/04 06:26:13;;;;;;;1.02;0.90;;;21.20;60.00;;;;;;5018606;28;20428;-62
2022/11/04 06:28:39;;;;;;;1.15;0.88;;;21.20;60.10;;;;;;5018166;28;20057;-62
2022/11/04 06:31:07;;;;;;;1.27;0.90;;;21.20;60.10;;;;;;5024241;28;20042;-62
2022/11/04 06:33:33;;;;;;;1.00;0.73;;;21.20;60.10;;;;;;5024623;28;20021;-63
2022/11/04 06:36:01;;;;;;;0.90;0.80;;;21.20;60.10;;;;;;5011185;28;20030;-62
2022/11/04 06:38:29;;;;;;;1.42;0.90;;;21.20;60.10;;;;;;5018054;28;20105;-61
2022/11/04 06:40:55;;;;;;;1.00;0.80;;;21.20;60.10;;;;;;5022320;28;20553;-61
2022/11/04 06:43:21;;;;;;;1.23;0.90;;;21.20;60.10;;;;;;5021959;28;20268;-62
2022/11/04 06:45:57;;;;;;;1.05;0.80;;;21.20;60.10;;;;;;5019520;28;20018;-64
2022/11/04 06:48:23;;;;;;;1.20;0.82;;;21.20;60.10;;;;;;5022632;28;20493;-62
2022/11/04 06:50:49;;;;;;;1.05;0.90;;;21.20;60.10;;;;;;5020067;28;20057;-61
2022/11/04 06:53:15;;;;;;;1.20;0.93;;;21.20;60.10;;;;;;5010204;28;20026;-62
2022/11/04 06:55:41;;;;;;;0.90;0.70;;;21.20;60.10;;;;;;5015712;28;20025;-62
2022/11/04 06:58:07;;;;;;;1.33;0.90;;;21.20;60.10;;;;;;5014273;28;20377;-63
2022/11/04 07:00:32;;;;;;;0.98;0.80;;;21.20;60.10;;;;;;5013512;28;20021;-63
2022/11/04 07:02:58;;;;;;;1.25;0.90;;;21.20;60.10;;;;;;5017489;28;20389;-62
2022/11/04 07:05:24;;;;;;;1.30;1.00;;;21.20;60.10;;;;;;5015340;28;20040;-62
2022/11/04 07:07:49;;;;;;;1.08;0.80;;;21.20;60.10;;;;;;5017449;28;20038;-63
2022/11/04 07:10:16;;;;;;;0.98;0.75;;;21.20;60.10;;;;;;5022896;28;20031;-62
2022/11/04 07:12:42;;;;;;;1.02;0.88;;;21.20;60.10;;;;;;5014214;28;20474;-61
2022/11/04 07:15:08;;;;;;;1.17;0.85;;;21.20;60.10;;;;;;5017544;28;20033;-62
2022/11/04 07:17:33;;;;;;;1.23;0.80;;;21.20;60.10;;;;;;5023865;28;20031;-63
2022/11/04 07:19:59;;;;;;;1.15;0.85;;;21.20;60.10;;;;;;5018708;28;20504;-62
2022/11/04 07:22:25;;;;;;;1.15;0.80;;;21.20;60.10;;;;;;5019753;28;20095;-62
2022/11/04 07:24:50;;;;;;;0.80;0.80;;;21.20;60.10;;;;;;5016011;28;20362;-64
2022/11/04 07:27:16;;;;;;;0.98;0.80;;;21.20;60.10;;;;;;5009945;28;20034;-62
2022/11/04 07:29:42;;;;;;;0.60;0.60;;;21.20;60.20;;;;;;4992654;28;20022;-62
2022/11/04 07:32:07;;;;;;;0.82;0.70;;;21.20;60.10;;;;;;5013740;28;20029;-62
2022/11/04 07:34:33;;;;;;;1.25;0.80;;;21.20;60.10;;;;;;5016065;28;20105;-62
2022/11/04 07:36:58;;;;;;;0.88;0.80;;;21.20;60.20;;;;;;5020116;28;20037;-62
2022/11/04 07:39:24;;;;;;;1.15;0.90;;;21.20;60.10;;;;;;5018026;28;20033;-63
2022/11/04 07:41:50;;;;;;;0.82;0.75;;;21.20;60.10;;;;;;5019777;28;20097;-63
2022/11/04 07:44:15;;;;;;;0.90;0.80;;;21.20;60.10;;;;;;5015737;28;20030;-64
2022/11/04 07:46:41;;;;;;;0.80;0.75;;;21.20;60.10;;;;;;5018099;28;20029;-63
2022/11/04 07:49:07;;;;;;;0.85;0.80;;;21.20;60.10;;;;;;5016590;28;20022;-61
2022/11/04 07:51:33;;;;;;;1.08;0.80;;;21.20;60.10;;;;;;5007672;28;20029;-62
2022/11/04 07:53:59;;;;;;;1.27;0.80;;;21.20;60.10;;;;;;5017600;28;20034;-62
2022/11/04 07:56:25;;;;;;;0.82;0.70;;;21.20;60.10;;;;;;5017760;28;20062;-62
2022/11/04 07:58:51;;;;;;;1.10;0.80;;;21.20;60.10;;;;;;5015874;28;20165;-62
2022/11/04 08:01:22;;;;;;;0.90;0.80;;;21.10;60.10;;;;;;5017083;28;20026;-64
2022/11/04 08:03:48;;;;;;;0.70;0.70;;;21.20;60.10;;;;;;5015286;28;20490;-62
2022/11/04 08:06:15;;;;;;;1.15;0.80;;;21.20;60.10;;;;;;5009449;28;20442;-62
2022/11/04 08:08:42;;;;;;;1.08;0.80;;;21.10;60.10;;;;;;5012227;28;20467;-62
2022/11/04 08:11:20;;;;;;;0.95;0.80;;;21.20;60.20;;;;;;5010122;28;20022;-62
2022/11/04 08:13:46;;;;;;;1.55;0.90;;;21.10;60.10;;;;;;5020478;28;20895;-62
2022/11/04 08:16:15;;;;;;;1.10;0.80;;;21.10;60.10;;;;;;5020403;28;20026;-63
2022/11/04 08:18:42;;;;;;;0.73;0.70;;;21.10;60.10;;;;;;5018258;28;20076;-62
2022/11/04 08:21:08;;;;;;;0.80;0.80;;;21.20;60.20;;;;;;5020246;28;20037;-63
2022/11/04 08:23:34;;;;;;;0.70;0.70;;;21.10;60.10;;;;;;5018666;28;20468;-62
2022/11/04 08:26:00;;;;;;;0.85;0.70;;;21.10;60.10;;;;;;5014248;28;20046;-63
2022/11/04 08:28:26;;;;;;;1.00;0.80;;;21.10;60.10;;;;;;5015322;28;20030;-62
2022/11/04 08:30:57;;;;;;;0.93;0.80;;;21.10;60.10;;;;;;5012173;28;20517;-63
2022/11/04 08:33:25;;;;;;;1.30;0.90;;;21.10;60.10;;;;;;5018185;28;20026;-63
2022/11/04 08:35:51;;;;;;;0.93;0.73;;;21.10;60.10;;;;;;5013240;28;20030;-61
2022/11/04 08:38:17;;;;;;;0.90;0.80;;;21.10;60.10;;;;;;5018749;28;20032;-61
2022/11/04 08:40:42;;;;;;;0.73;0.70;;;21.20;60.20;;;;;;5010374;28;20437;-62
2022/11/04 08:43:08;;;;;;;0.80;0.80;;;21.10;60.10;;;;;;5006619;28;20096;-62
2022/11/04 08:45:39;;;;;;;0.95;0.77;;;21.10;60.70;;;;;;5013713;28;20042;-62
2022/11/04 08:48:04;;;;;;;1.05;0.90;;;21.10;60.10;;;;;;5013821;28;20209;-62
2022/11/04 08:50:30;;;;;;;1.00;0.80;;;21.10;60.10;;;;;;5011821;28;20702;-61
2022/11/04 08:52:57;;;;;;;1.13;0.80;;;21.10;60.70;;;;;;5006713;28;20029;-62
2022/11/04 08:55:23;;;;;;;1.10;0.63;;;21.10;60.10;;;;;;5001927;28;20378;-61
2022/11/04 08:57:49;;;;;;;0.85;0.70;;;21.10;60.10;;;;;;5017669;28;20030;-62
2022/11/04 09:00:15;;;;;;;0.90;0.70;;;21.10;60.10;;;;;;5014965;28;20064;-61
2022/11/04 09:02:41;;;;;;;0.75;0.60;;;21.10;60.10;;;;;;5013411;28;20053;-62
2022/11/04 09:05:07;;;;;;;1.13;0.80;;;21.10;60.10;;;;;;5002299;28;20079;-62
2022/11/04 09:07:34;;;;;;;1.25;0.80;;;21.10;60.10;;;;;;5010390;28;20032;-63
2022/11/04 09:10:01;;;;;;;0.90;0.70;;;21.10;60.10;;;;;;5012570;28;20478;-63
2022/11/04 09:12:26;;;;;;;0.88;0.70;;;21.10;60.20;;;;;;5019224;28;20058;-62
2022/11/04 09:14:52;;;;;;;1.00;0.80;;;21.10;60.70;;;;;;5020241;28;20060;-62
2022/11/04 09:17:18;;;;;;;0.80;0.60;;;21.10;60.20;;;;;;5009455;28;20034;-63
2022/11/04 09:19:43;;;;;;;0.60;0.60;;;21.10;60.10;;;;;;5011729;28;20046;-61
2022/11/04 09:22:09;;;;;;;0.93;0.70;;;21.10;60.10;;;;;;5015298;28;20105;-63
2022/11/04 09:24:34;;;;;;;1.27;0.80;;;21.10;60.20;;;;;;5013834;28;20371;-62
2022/11/04 09:27:00;;;;;;;1.02;0.80;;;21.10;60.10;;;;;;5012775;28;20077;-62
2022/11/04 09:29:26;;;;;;;1.15;0.70;;;21.10;60.10;;;;;;5017543;28;20384;-61
2022/11/04 09:31:51;;;;;;;0.90;0.75;;;21.10;60.10;;;;;;5002928;28;20092;-61
2022/11/04 09:34:17;;;;;;;1.20;0.90;;;21.10;60.10;;;;;;5013760;28;20049;-64
2022/11/04 09:36:44;;;;;;;1.05;0.80;;;21.10;60.10;;;;;;5016833;28;20030;-61
2022/11/04 09:39:09;;;;;;;0.73;0.70;;;21.10;60.10;;;;;;5014021;28;20018;-62
2022/11/04 09:41:35;;;;;;;0.85;0.70;;;21.10;60.10;;;;;;5010365;28;20053;-63
2022/11/04 09:44:19;;;;;;;0.70;0.70;;;21.10;60.10;;;;;;5012835;28;20030;-62
2022/11/04 09:46:48;;;;;;;0.80;0.68;;;21.10;60.10;;;;;;5011430;28;20029;-62
2022/11/04 09:49:15;;;;;;;1.00;0.80;;;21.10;60.10;;;;;;5020236;28;20033;-61
2022/11/04 09:51:44;;;;;;;1.00;0.82;;;21.10;60.60;;;;;;5021959;28;20034;-62
2022/11/04 09:54:20;;;;;;;1.10;0.80;;;21.10;60.00;;;;;;5008215;28;20030;-62
2022/11/04 09:56:50;;;;;;;1.02;0.80;;;21.10;60.40;;;;;;5015869;28;20446;-62
2022/11/04 09:59:22;;;;;;;1.00;0.80;;;21.20;60.50;;;;;;5014095;28;20049;-62
2022/11/04 10:02:10;;;;;;;1.40;0.80;;;21.10;60.40;;;;;;5013578;28;20485;-63
2022/11/04 10:04:42;;;;;;;1.02;0.70;;;21.10;60.40;;;;;;5013959;28;20034;-63
2022/11/04 10:07:42;;;;;;;1.02;0.70;;;21.10;60.30;;;;;;5017477;28;20029;-62
2022/11/04 10:10:22;;;;;;;1.13;0.82;;;21.10;60.30;;;;;;5016395;28;20536;-62
2022/11/04 10:13:19;;;;;;;1.10;0.80;;;21.10;60.30;;;;;;5006999;28;20022;-61
2022/11/04 10:15:55;;;;;;;0.98;0.80;;;21.20;60.30;;;;;;5011784;28;20041;-62
2022/11/04 10:18:48;;;;;;;1.30;0.90;;;21.10;60.20;;;;;;5009557;28;20032;-61
2022/11/04 10:21:32;;;;;;;2.38;1.25;;;21.10;60.20;;;;;;5014605;28;20070;-62
2022/11/04 10:24:07;;;;;;;1.40;0.80;;;21.10;60.30;;;;;;4998635;28;20033;-61
2022/11/04 10:26:43;;;;;;;1.08;0.90;;;21.10;60.30;;;;;;5015240;28;20038;-61
2022/11/04 10:29:45;;;;;;;1.65;0.90;;;21.10;60.30;;;;;;5016292;28;20030;-61
2022/11/04 10:32:25;;;;;;;1.73;0.90;;;21.10;60.30;;;;;;5008215;28;20030;-62
2022/11/04 10:34:59;;;;;;;1.48;0.95;;;21.10;60.30;;;;;;5017861;28;20023;-63
2022/11/04 10:37:25;;;;;;;1.83;0.93;;;21.10;60.20;;;;;;5016339;28;20077;-63
2022/11/04 10:39:59;;;;;;;1.83;0.85;;;21.10;60.30;;;;;;5015363;28;20485;-63
2022/11/04 10:42:24;;;;;;;1.58;1.00;;;21.10;60.30;;;;;;5012866;28;20093;-63
2022/11/04 10:44:51;;;;;;;1.27;0.82;;;21.10;60.20;;;;;;5010079;28;20071;-62
2022/11/04 10:47:30;;;;;;;1.52;0.70;;;21.10;60.20;;;;;;5010253;28;20132;-61
2022/11/04 10:50:03;;;;;;;;;;;21.10;60.20;;;;;;5006989;28;20037;-62
2022/11/04 10:52:32;;;;;;;1.58;0.90;;;21.20;60.20;;;;;;5011703;28;19905;-63
2022/11/04 10:54:58;;;;;;;1.90;1.00;;;21.10;60.20;;;;;;5014826;28;20109;-62
2022/11/04 10:57:24;;;;;;;1.05;0.80;;;21.10;60.10;;;;;;5015070;28;20144;-61
2022/11/04 11:00:04;;;;;;;1.23;0.82;;;21.20;60.20;;;;;;5013847;28;20026;-62
2022/11/04 11:02:35;;;;;;;1.05;0.80;;;21.10;60.20;;;;;;5012995;28;20065;-61
2022/11/04 11:05:16;;;;;;;2.22;0.80;;;21.10;60.20;;;;;;5013327;28;20034;-62
2022/11/04 11:07:53;;;;;;;1.55;0.90;;;21.20;60.20;;;;;;5018242;28;20057;-62
2022/11/04 11:10:31;;;;;;;1.80;0.90;;;21.20;60.20;;;;;;5009745;28;20509;-61
2022/11/04 11:13:02;;;;;;;0.82;0.80;;;21.10;60.20;;;;;;5021722;28;20030;-63
2022/11/04 11:15:36;;;;;;;1.42;1.00;;;21.20;60.20;;;;;;5017455;28;20031;-62
2022/11/04 11:18:05;;;;;;;0.88;0.80;;;21.20;60.20;;;;;;5015704;28;20485;-61
2022/11/04 11:20:32;;;;;;;0.93;0.80;;;21.10;60.10;;;;;;5016870;28;20026;-61
2022/11/04 11:22:58;;;;;;;1.63;0.95;;;21.10;60.20;;;;;;5012031;28;20466;-62
2022/11/04 11:25:30;;;;;;;1.38;0.80;;;21.10;60.10;;;;;;5010692;28;20025;-61
2022/11/04 11:28:03;;;;;;;1.10;0.80;;;21.20;60.20;;;;;;5010291;28;20609;-61
2022/11/04 11:30:40;;;;;;;1.10;0.80;;;21.10;60.20;;;;;;5017743;28;20060;-62
2022/11/04 11:33:17;;;;;;;1.65;0.80;;;21.10;60.20;;;;;;5019410;28;20036;-61
2022/11/04 11:35:54;;;;;;;1.17;0.98;;;21.20;60.20;;;;;;5018293;28;20052;-62
2022/11/04 11:38:31;;;;;;;1.58;0.93;;;21.10;60.20;;;;;;5018968;28;20442;-62
2022/11/04 11:41:30;;;;;;;1.40;0.80;;;21.10;60.20;;;;;;5022373;28;20503;-63
2022/11/04 11:44:01;;;;;;;1.88;0.80;;;21.10;60.20;;;;;;5010546;28;20123;-62
2022/11/04 11:46:30;;;;;;;1.10;0.80;;;21.20;60.30;;;;;;5012029;28;20057;-63
2022/11/04 11:49:02;;;;;;;1.77;0.95;;;21.20;60.30;;;;;;5016129;28;20096;-63
2022/11/04 11:51:37;;;;;;;1.17;0.85;;;21.20;60.30;;;;;;5017766;28;20038;-62
2022/11/04 11:54:02;;;;;;;1.65;1.00;;;21.10;60.40;;;;;;5013161;28;20014;-62
2022/11/04 11:56:33;;;;;;;1.00;0.80;;;21.10;60.40;;;;;;5018496;28;20022;-61
2022/11/04 11:59:34;;;;;;;1.25;0.82;;;21.10;60.40;;;;;;5010234;28;20061;-62
2022/11/04 12:02:30;;;;;;;1.70;1.08;;;21.10;60.40;;;;;;5007932;28;20412;-61
2022/11/04 12:04:56;;;;;;;1.70;1.25;;;21.10;60.50;;;;;;5015808;28;20092;-62
2022/11/04 12:07:43;;;;;;;2.38;1.00;;;21.10;60.50;;;;;;5013323;28;20030;-62
2022/11/04 12:10:36;;;;;;;2.10;1.00;;;21.10;60.60;;;;;;5021572;28;20508;-62
2022/11/04 12:13:17;;;;;;;2.22;1.10;;;21.10;60.50;;;;;;5018958;28;20513;-63
2022/11/04 12:16:05;;;;;;;1.48;0.90;;;21.10;60.50;;;;;;5014429;28;20026;-62
2022/11/04 12:18:55;;;;;;;1.90;1.08;;;21.10;60.50;;;;;;5015711;28;20026;-62
2022/11/04 12:21:32;;;;;;;1.30;0.88;;;21.10;60.60;;;;;;5014113;28;20056;-61
2022/11/04 12:24:19;;;;;;;1.38;0.88;;;21.10;60.60;;;;;;5011578;28;20021;-62
2022/11/04 12:27:16;;;;;;;1.60;0.90;;;21.10;60.60;;;;;;5007698;28;20033;-61
2022/11/04 12:30:02;;;;;;;1.42;1.00;;;21.10;60.70;;;;;;5015430;28;20026;-63
2022/11/04 12:32:54;;;;;;;1.20;0.90;;;21.10;60.70;;;;;;5019673;28;20041;-62
2022/11/04 12:35:41;;;;;;;1.75;0.95;;;21.10;60.70;;;;;;5010976;28;20092;-61
2022/11/04 12:38:09;;;;;;;1.45;0.90;;;21.10;60.70;;;;;;5013017;28;20112;-61
2022/11/04 12:40:58;;;;;;;1.63;0.93;;;21.10;60.70;;;;;;5016895;28;20413;-61
2022/11/04 12:43:30;;;;;;;1.17;0.80;;;21.10;60.70;;;;;;5005003;28;20284;-62
2022/11/04 12:46:20;;;;;;;1.42;0.90;;;21.10;60.70;;;;;;5009972;28;20033;-62
2022/11/04 12:48:52;;;;;;;2.45;1.00;;;21.10;60.70;;;;;;5018722;28;20022;-62
2022/11/04 12:51:33;;;;;;;1.35;0.90;;;21.10;60.70;;;;;;5016450;28;20117;-64
2022/11/04 12:54:20;;;;;;;1.27;0.80;;;21.10;60.80;;;;;;5011047;28;20052;-63
2022/11/04 12:57:10;;;;;;;1.67;0.90;;;21.10;60.80;;;;;;5015746;28;20031;-64
2022/11/04 12:59:52;;;;;;;1.20;0.85;;;21.10;60.80;;;;;;4979408;28;20045;-62
2022/11/04 13:02:56;;;;;;;2.35;1.20;;;21.10;61.00;;;;;;5011096;28;20049;-64
2022/11/04 13:05:29;;;;;;;2.17;1.08;;;21.10;61.30;;;;;;5009272;28;20033;-65
2022/11/04 13:08:19;;;;;;;1.48;0.90;;;21.10;61.30;;;;;;5018288;28;20029;-63
2022/11/04 13:11:04;;;;;;;1.65;1.00;;;21.10;61.50;;;;;;5013414;28;20034;-64
2022/11/04 13:13:35;;;;;;;1.83;0.90;;;21.10;61.60;;;;;;5009958;28;20473;-64
2022/11/04 13:16:08;;;;;;;1.73;0.88;;;21.10;61.60;;;;;;5011778;28;20025;-64
2022/11/04 13:18:38;;;;;;;2.13;1.10;;;21.10;61.80;;;;;;5008709;28;20234;-64
2022/11/04 13:21:12;;;;;;;1.73;0.90;;;21.10;61.70;;;;;;5012581;28;20041;-63
2022/11/04 13:23:41;;;;;;;2.05;1.00;;;21.10;61.80;;;;;;5011576;28;20029;-64
2022/11/04 13:26:13;;;;;;;1.60;1.00;;;21.10;61.80;;;;;;5017307;28;20120;-63
2022/11/04 13:28:40;;;;;;;1.40;1.00;;;21.10;61.90;;;;;;5015958;28;20938;-64
2022/11/04 13:31:30;;;;;;;2.95;1.10;;;21.10;61.90;;;;;;5013196;28;20037;-64
2022/11/04 13:34:07;;;;;;;2.35;1.00;;;21.10;62.10;;;;;;5014400;28;20021;-63
2022/11/04 13:36:49;;;;;;;1.67;1.00;;;21.10;62.10;;;;;;5008806;28;20379;-64
2022/11/04 13:39:22;;;;;;;2.28;0.90;;;21.10;62.20;;;;;;5014547;28;20487;-63
2022/11/04 13:42:08;;;;;;;1.83;0.90;;;21.10;62.20;;;;;;5010561;28;20105;-63